Twijzel, Netherlands
Current Conditions -  °F | °C
As of 11:44 PM on Monday 20 Oct 2014 (Local Time) from EHLW Reporting Station
Drizzle Drizzle  
Wind Chill: 54°   Ceiling: 3900
Heat Index: 54°   Visibility: 6mi
Dew Point: 54°   Wind: 7mph
Humidity: 100%   Direction: 210°SSW
Pressure: 29.83"   Gusts: NA
Location:  53.23°N, 6.09°E
Report Text: EHLW 202144Z AUTO 21006KT 9999 DZ FEW015TCU SCT021 BKN039 12/12 Q1010 WHT
Loading
Personal Weather Stations






























Interactive Weather Map
Tropical Storm Tracking
New forecast layout! Learn more

10-Day Weather Forecast

Advertisements
Track Severe Weather on mobile